sensor_id;sensor_type;location;lat;lon;timestamp;pressure;altitude;pressure_sealevel;temperature;humidity
9009;BME280;62813;51.424;6.762;2023-04-07T00:01:44;101114.00;;;8.53;96.87
9009;BME280;62813;51.424;6.762;2023-04-07T00:04:10;101117.34;;;8.57;96.82
9009;BME280;62813;51.424;6.762;2023-04-07T00:06:37;101118.34;;;8.53;96.96
9009;BME280;62813;51.424;6.762;2023-04-07T00:09:05;101116.44;;;8.58;96.94
9009;BME280;62813;51.424;6.762;2023-04-07T00:11:32;101111.56;;;8.47;96.99
9009;BME280;62813;51.424;6.762;2023-04-07T00:13:59;101118.28;;;8.54;96.95
9009;BME280;62813;51.424;6.762;2023-04-07T00:16:25;101110.56;;;8.53;96.93
9009;BME280;62813;51.424;6.762;2023-04-07T00:18:52;101115.56;;;8.59;96.86
9009;BME280;62813;51.424;6.762;2023-04-07T00:21:19;101114.81;;;8.55;96.65
9009;BME280;62813;51.424;6.762;2023-04-07T00:23:46;101121.88;;;8.49;97.56
9009;BME280;62813;51.424;6.762;2023-04-07T00:26:13;101111.53;;;8.49;97.06
9009;BME280;62813;51.424;6.762;2023-04-07T00:28:39;101114.81;;;8.55;97.11
9009;BME280;62813;51.424;6.762;2023-04-07T00:31:06;101115.66;;;8.56;97.25
9009;BME280;62813;51.424;6.762;2023-04-07T00:33:33;101115.75;;;8.53;97.27
9009;BME280;62813;51.424;6.762;2023-04-07T00:35:59;101114.91;;;8.51;97.61
9009;BME280;62813;51.424;6.762;2023-04-07T00:38:26;101108.16;;;8.47;97.73
9009;BME280;62813;51.424;6.762;2023-04-07T00:40:57;101109.09;;;8.43;97.63
9009;BME280;62813;51.424;6.762;2023-04-07T00:43:25;101108.06;;;8.50;97.92
9009;BME280;62813;51.424;6.762;2023-04-07T00:45:52;101112.38;;;8.49;97.84
9009;BME280;62813;51.424;6.762;2023-04-07T00:48:20;101113.16;;;8.53;97.37
9009;BME280;62813;51.424;6.762;2023-04-07T00:50:47;101115.66;;;8.56;97.44
9009;BME280;62813;51.424;6.762;2023-04-07T00:53:15;101107.00;;;8.57;97.48
9009;BME280;62813;51.424;6.762;2023-04-07T00:55:42;101109.53;;;8.60;97.20
9009;BME280;62813;51.424;6.762;2023-04-07T00:58:08;101108.63;;;8.61;97.42
9009;BME280;62813;51.424;6.762;2023-04-07T01:00:41;101109.38;;;8.64;97.57
9009;BME280;62813;51.424;6.762;2023-04-07T01:03:14;101106.75;;;8.66;97.47
9009;BME280;62813;51.424;6.762;2023-04-07T01:06:04;101102.38;;;8.68;97.66
9009;BME280;62813;51.424;6.762;2023-04-07T01:11:09;101101.50;;;8.69;97.59
9009;BME280;62813;51.424;6.762;2023-04-07T01:13:42;101094.63;;;8.68;98.06
9009;BME280;62813;51.424;6.762;2023-04-07T01:16:14;101103.28;;;8.67;97.94
9009;BME280;62813;51.424;6.762;2023-04-07T01:18:43;101107.53;;;8.69;97.80
9009;BME280;62813;51.424;6.762;2023-04-07T01:21:14;101094.53;;;8.71;98.21
9009;BME280;62813;51.424;6.762;2023-04-07T01:26:48;101095.31;;;8.75;98.03
9009;BME280;62813;51.424;6.762;2023-04-07T01:29:28;101096.16;;;8.75;98.24
9009;BME280;62813;51.424;6.762;2023-04-07T01:31:59;101096.16;;;8.75;98.26
9009;BME280;62813;51.424;6.762;2023-04-07T01:34:28;101099.53;;;8.77;98.47
9009;BME280;62813;51.424;6.762;2023-04-07T01:36:56;101101.16;;;8.81;98.72
9009;BME280;62813;51.424;6.762;2023-04-07T01:39:26;101096.00;;;8.81;98.89
9009;BME280;62813;51.424;6.762;2023-04-07T01:41:54;101101.13;;;8.83;98.98
9009;BME280;62813;51.424;6.762;2023-04-07T01:44:21;101097.69;;;8.82;98.77
9009;BME280;62813;51.424;6.762;2023-04-07T01:46:49;101096.69;;;8.86;98.96
9009;BME280;62813;51.424;6.762;2023-04-07T01:49:17;101098.34;;;8.89;98.86
9009;BME280;62813;51.424;6.762;2023-04-07T01:51:48;101099.25;;;8.88;99.02
9009;BME280;62813;51.424;6.762;2023-04-07T01:54:17;101100.22;;;8.84;99.57
9009;BME280;62813;51.424;6.762;2023-04-07T01:56:44;101089.03;;;8.83;99.48
9009;BME280;62813;51.424;6.762;2023-04-07T01:59:11;101094.25;;;8.80;100.00
9009;BME280;62813;51.424;6.762;2023-04-07T02:01:38;101096.00;;;8.81;100.00
9009;BME280;62813;51.424;6.762;2023-04-07T02:06:43;101098.38;;;8.87;99.68
9009;BME280;62813;51.424;6.762;2023-04-07T02:09:15;101091.50;;;8.86;100.00
9009;BME280;62813;51.424;6.762;2023-04-07T02:11:44;101100.97;;;8.87;100.00
9009;BME280;62813;51.424;6.762;2023-04-07T02:14:12;101094.06;;;8.88;100.00
9009;BME280;62813;51.424;6.762;2023-04-07T02:16:41;101100.03;;;8.90;100.00
9009;BME280;62813;51.424;6.762;2023-04-07T02:19:08;101099.94;;;8.93;99.96
9009;BME280;62813;51.424;6.762;2023-04-07T02:21:35;101099.91;;;8.94;99.87
9009;BME280;62813;51.424;6.762;2023-04-07T02:24:06;101105.06;;;8.96;99.66
9009;BME280;62813;51.424;6.762;2023-04-07T02:26:35;101105.28;;;8.88;100.00
9009;BME280;62813;51.424;6.762;2023-04-07T02:29:03;101096.72;;;8.85;100.00
9009;BME280;62813;51.424;6.762;2023-04-07T02:31:30;101108.88;;;8.83;100.00
9009;BME280;62813;51.424;6.762;2023-04-07T02:33:57;101104.53;;;8.83;100.00
9009;BME280;62813;51.424;6.762;2023-04-07T02:36:24;101103.69;;;8.83;100.00
9009;BME280;62813;51.424;6.762;2023-04-07T02:38:51;101104.44;;;8.86;100.00
9009;BME280;62813;51.424;6.762;2023-04-07T02:41:18;101099.25;;;8.88;100.00
9009;BME280;62813;51.424;6.762;2023-04-07T02:43:45;101108.88;;;8.83;100.00
9009;BME280;62813;51.424;6.762;2023-04-07T02:46:11;101104.53;;;8.83;100.00
9009;BME280;62813;51.424;6.762;2023-04-07T02:48:41;101112.31;;;8.83;100.00
9009;BME280;62813;51.424;6.762;2023-04-07T02:51:08;101110.63;;;8.82;100.00
9009;BME280;62813;51.424;6.762;2023-04-07T02:53:34;101110.63;;;8.82;100.00
9009;BME280;62813;51.424;6.762;2023-04-07T02:56:01;101115.84;;;8.81;100.00
9009;BME280;62813;51.424;6.762;2023-04-07T02:58:28;101112.38;;;8.80;100.00
9009;BME280;62813;51.424;6.762;2023-04-07T03:00:55;101111.53;;;8.80;100.00
9009;BME280;62813;51.424;6.762;2023-04-07T03:03:22;101115.88;;;8.79;100.00
9009;BME280;62813;51.424;6.762;2023-04-07T03:05:49;101117.72;;;8.76;100.00
9009;BME280;62813;51.424;6.762;2023-04-07T03:08:15;101116.94;;;8.72;100.00
9009;BME280;62813;51.424;6.762;2023-04-07T03:10:43;101118.63;;;8.73;100.00
9009;BME280;62813;51.424;6.762;2023-04-07T03:13:09;101120.34;;;8.74;100.00
9009;BME280;62813;51.424;6.762;2023-04-07T03:15:38;101110.75;;;8.78;100.00
9009;BME280;62813;51.424;6.762;2023-04-07T03:18:05;101116.75;;;8.78;100.00
9009;BME280;62813;51.424;6.762;2023-04-07T03:20:31;101111.53;;;8.81;100.00
9009;BME280;62813;51.424;6.762;2023-04-07T03:22:58;101119.28;;;8.81;100.00
9009;BME280;62813;51.424;6.762;2023-04-07T03:25:25;101121.03;;;8.79;100.00
9009;BME280;62813;51.424;6.762;2023-04-07T03:27:52;101123.63;;;8.81;100.00
9009;BME280;62813;51.424;6.762;2023-04-07T03:30:19;101121.03;;;8.79;100.00
9009;BME280;62813;51.424;6.762;2023-04-07T03:32:46;101125.25;;;8.83;99.98
9009;BME280;62813;51.424;6.762;2023-04-07T03:35:13;101121.81;;;8.83;99.69
9009;BME280;62813;51.424;6.762;2023-04-07T03:37:40;101129.59;;;8.83;99.46
9009;BME280;62813;51.424;6.762;2023-04-07T03:40:07;101124.47;;;8.81;99.84
9009;BME280;62813;51.424;6.762;2023-04-07T03:42:33;101121.03;;;8.79;99.82
9009;BME280;62813;51.424;6.762;2023-04-07T03:45:00;101118.63;;;8.73;99.72
9009;BME280;62813;51.424;6.762;2023-04-07T03:47:27;101123.72;;;8.76;99.42
9009;BME280;62813;51.424;6.762;2023-04-07T03:49:54;101128.00;;;8.77;99.11
9009;BME280;62813;51.424;6.762;2023-04-07T03:52:21;101130.69;;;8.74;99.27
9009;BME280;62813;51.424;6.762;2023-04-07T03:54:48;101133.28;;;8.74;99.29
9009;BME280;62813;51.424;6.762;2023-04-07T03:57:15;101129.84;;;8.74;99.38
9009;BME280;62813;51.424;6.762;2023-04-07T03:59:42;101128.28;;;8.68;99.74
9009;BME280;62813;51.424;6.762;2023-04-07T04:02:08;101130.75;;;8.71;99.40
9009;BME280;62813;51.424;6.762;2023-04-07T04:04:35;101128.16;;;8.71;99.63
9009;BME280;62813;51.424;6.762;2023-04-07T04:07:02;101130.06;;;8.64;100.00
9009;BME280;62813;51.424;6.762;2023-04-07T04:09:29;101138.69;;;8.65;99.41
9009;BME280;62813;51.424;6.762;2023-04-07T04:11:56;101141.38;;;8.62;99.44
9009;BME280;62813;51.424;6.762;2023-04-07T04:14:23;101133.72;;;8.57;99.72
9009;BME280;62813;51.424;6.762;2023-04-07T04:16:49;101139.69;;;8.61;99.97
9009;BME280;62813;51.424;6.762;2023-04-07T04:19:17;101145.91;;;8.54;99.83
9009;BME280;62813;51.424;6.762;2023-04-07T04:21:43;101144.16;;;8.54;100.00
9009;BME280;62813;51.424;6.762;2023-04-07T04:24:10;101151.88;;;8.56;100.00
9009;BME280;62813;51.424;6.762;2023-04-07T04:26:37;101151.88;;;8.56;100.00
9009;BME280;62813;51.424;6.762;2023-04-07T04:29:03;101151.88;;;8.56;99.92
9009;BME280;62813;51.424;6.762;2023-04-07T04:31:30;101163.91;;;8.57;100.00
9009;BME280;62813;51.424;6.762;2023-04-07T04:33:57;101156.09;;;8.60;100.00
9009;BME280;62813;51.424;6.762;2023-04-07T04:36:24;101150.94;;;8.58;100.00
9009;BME280;62813;51.424;6.762;2023-04-07T04:38:51;101157.00;;;8.57;100.00
9009;BME280;62813;51.424;6.762;2023-04-07T04:41:18;101160.38;;;8.61;99.74
9009;BME280;62813;51.424;6.762;2023-04-07T04:43:45;101166.34;;;8.63;100.00
9009;BME280;62813;51.424;6.762;2023-04-07T04:46:13;101168.19;;;8.58;99.85
9009;BME280;62813;51.424;6.762;2023-04-07T04:48:39;101167.50;;;8.53;99.91
9009;BME280;62813;51.424;6.762;2023-04-07T04:51:07;101171.78;;;8.54;99.53
9009;BME280;62813;51.424;6.762;2023-04-07T04:53:33;101170.09;;;8.51;99.51
9009;BME280;62813;51.424;6.762;2023-04-07T04:56:00;101175.31;;;8.50;99.45
9009;BME280;62813;51.424;6.762;2023-04-07T04:58:27;101172.66;;;8.53;99.06
9009;BME280;62813;51.424;6.762;2023-04-07T05:00:54;101176.25;;;8.47;98.65
9009;BME280;62813;51.424;6.762;2023-04-07T05:03:27;101186.56;;;8.49;98.85
9009;BME280;62813;51.424;6.762;2023-04-07T05:05:54;101178.88;;;8.46;98.97
9009;BME280;62813;51.424;6.762;2023-04-07T05:08:20;101180.56;;;8.47;98.71
9009;BME280;62813;51.424;6.762;2023-04-07T05:10:47;101185.66;;;8.50;98.39
9009;BME280;62813;51.424;6.762;2023-04-07T05:13:14;101185.75;;;8.45;98.82
9009;BME280;62813;51.424;6.762;2023-04-07T05:15:41;101186.66;;;8.46;98.61
9009;BME280;62813;51.424;6.762;2023-04-07T05:18:07;101191.00;;;8.44;98.43
9009;BME280;62813;51.424;6.762;2023-04-07T05:20:34;101192.81;;;8.40;98.46
9009;BME280;62813;51.424;6.762;2023-04-07T05:23:01;101194.56;;;8.39;98.25
9009;BME280;62813;51.424;6.762;2023-04-07T05:25:28;101191.19;;;8.36;98.41
9009;BME280;62813;51.424;6.762;2023-04-07T05:27:56;101201.47;;;8.39;98.44
9009;BME280;62813;51.424;6.762;2023-04-07T05:30:24;101198.00;;;8.40;98.38
9009;BME280;62813;51.424;6.762;2023-04-07T05:32:51;101198.91;;;8.37;98.51
9009;BME280;62813;51.424;6.762;2023-04-07T05:35:18;101201.47;;;8.37;98.29
9009;BME280;62813;51.424;6.762;2023-04-07T05:37:49;101202.38;;;8.36;98.06
9009;BME280;62813;51.424;6.762;2023-04-07T05:40:16;101205.94;;;8.32;98.43
9009;BME280;62813;51.424;6.762;2023-04-07T05:42:42;101208.44;;;8.35;98.07
9009;BME280;62813;51.424;6.762;2023-04-07T05:45:09;101210.97;;;8.37;97.61
9009;BME280;62813;51.424;6.762;2023-04-07T05:47:36;101210.97;;;8.38;97.28
9009;BME280;62813;51.424;6.762;2023-04-07T05:50:03;101218.69;;;8.40;97.78
9009;BME280;62813;51.424;6.762;2023-04-07T05:52:30;101216.06;;;8.41;97.89
9009;BME280;62813;51.424;6.762;2023-04-07T05:54:57;101215.16;;;8.43;97.77
9009;BME280;62813;51.424;6.762;2023-04-07T05:57:24;101220.09;;;8.52;97.94
9009;BME280;62813;51.424;6.762;2023-04-07T05:59:53;101220.03;;;8.55;97.62
9009;BME280;62813;51.424;6.762;2023-04-07T06:02:19;101224.22;;;8.59;97.88
9009;BME280;62813;51.424;6.762;2023-04-07T06:04:46;101226.75;;;8.62;97.85
9009;BME280;62813;51.424;6.762;2023-04-07T06:07:13;101228.53;;;8.60;97.75
9009;BME280;62813;51.424;6.762;2023-04-07T06:09:40;101232.88;;;8.58;97.52
9009;BME280;62813;51.424;6.762;2023-04-07T06:12:08;101231.13;;;8.60;97.70
9009;BME280;62813;51.424;6.762;2023-04-07T06:14:36;101232.00;;;8.59;97.46
9009;BME280;62813;51.424;6.762;2023-04-07T06:17:02;101238.09;;;8.56;97.59
9009;BME280;62813;51.424;6.762;2023-04-07T06:19:29;101239.09;;;8.52;97.59
9009;BME280;62813;51.424;6.762;2023-04-07T06:21:56;101243.22;;;8.58;97.69
9009;BME280;62813;51.424;6.762;2023-04-07T06:24:22;101244.06;;;8.60;97.40
9009;BME280;62813;51.424;6.762;2023-04-07T06:26:53;101242.38;;;8.57;97.60
9009;BME280;62813;51.424;6.762;2023-04-07T06:29:20;101246.56;;;8.63;97.30
9009;BME280;62813;51.424;6.762;2023-04-07T06:31:47;101247.38;;;8.65;97.48
9009;BME280;62813;51.424;6.762;2023-04-07T06:34:13;101244.78;;;8.65;97.36
9009;BME280;62813;51.424;6.762;2023-04-07T06:36:40;101246.41;;;8.69;97.05
9009;BME280;62813;51.424;6.762;2023-04-07T06:39:07;101247.16;;;8.74;96.77
9009;BME280;62813;51.424;6.762;2023-04-07T06:41:34;101249.06;;;8.67;96.53
9009;BME280;62813;51.424;6.762;2023-04-07T06:44:00;101257.00;;;8.60;96.47
9009;BME280;62813;51.424;6.762;2023-04-07T06:46:27;101248.34;;;8.61;96.09
9009;BME280;62813;51.424;6.762;2023-04-07T06:48:54;101261.47;;;8.53;96.44
9009;BME280;62813;51.424;6.762;2023-04-07T06:51:21;101260.50;;;8.57;96.09
9009;BME280;62813;51.424;6.762;2023-04-07T06:53:48;101258.75;;;8.59;96.47
9009;BME280;62813;51.424;6.762;2023-04-07T06:56:15;101263.03;;;8.59;96.62
9009;BME280;62813;51.424;6.762;2023-04-07T06:58:42;101265.63;;;8.59;96.90
9009;BME280;62813;51.424;6.762;2023-04-07T07:01:08;101268.13;;;8.63;96.76
9009;BME280;62813;51.424;6.762;2023-04-07T07:03:35;101267.34;;;8.60;96.58
9009;BME280;62813;51.424;6.762;2023-04-07T07:06:02;101278.41;;;8.66;96.19
9009;BME280;62813;51.424;6.762;2023-04-07T07:08:29;101286.19;;;8.65;95.88
9009;BME280;62813;51.424;6.762;2023-04-07T07:10:56;101276.72;;;8.64;96.64
9009;BME280;62813;51.424;6.762;2023-04-07T07:13:26;101280.09;;;8.67;97.15
9009;BME280;62813;51.424;6.762;2023-04-07T07:15:53;101283.41;;;8.74;97.67
9009;BME280;62813;51.424;6.762;2023-04-07T07:18:23;101276.47;;;8.75;97.17
9009;BME280;62813;51.424;6.762;2023-04-07T07:20:50;101284.03;;;8.82;97.40
9009;BME280;62813;51.424;6.762;2023-04-07T07:23:16;101272.00;;;8.81;96.63
9009;BME280;62813;51.424;6.762;2023-04-07T07:25:43;101279.78;;;8.80;96.51
9009;BME280;62813;51.424;6.762;2023-04-07T07:28:10;101287.63;;;8.77;96.84
9009;BME280;62813;51.424;6.762;2023-04-07T07:30:38;101288.38;;;8.80;96.45
9009;BME280;62813;51.424;6.762;2023-04-07T07:33:07;101282.22;;;8.86;96.52
9009;BME280;62813;51.424;6.762;2023-04-07T07:35:34;101297.69;;;8.87;96.69
9009;BME280;62813;51.424;6.762;2023-04-07T07:38:00;101293.50;;;8.83;96.93
9009;BME280;62813;51.424;6.762;2023-04-07T07:40:27;101293.41;;;8.88;96.88
9009;BME280;62813;51.424;6.762;2023-04-07T07:42:54;101300.13;;;8.93;96.97
9009;BME280;62813;51.424;6.762;2023-04-07T07:45:20;101298.44;;;8.92;96.95
9009;BME280;62813;51.424;6.762;2023-04-07T07:47:47;101307.00;;;8.94;97.02
9009;BME280;62813;51.424;6.762;2023-04-07T07:50:14;101310.25;;;9.04;96.95
9009;BME280;62813;51.424;6.762;2023-04-07T07:52:41;101309.34;;;9.07;96.84
9009;BME280;62813;51.424;6.762;2023-04-07T07:55:08;101307.47;;;9.12;96.63
9009;BME280;62813;51.424;6.762;2023-04-07T07:57:35;101316.00;;;9.17;97.01
9009;BME280;62813;51.424;6.762;2023-04-07T08:00:02;101316.88;;;9.16;96.82
9009;BME280;62813;51.424;6.762;2023-04-07T08:02:30;101312.75;;;9.09;96.16
9009;BME280;62813;51.424;6.762;2023-04-07T08:04:59;101322.38;;;9.02;96.31
9009;BME280;62813;51.424;6.762;2023-04-07T08:07:26;101324.88;;;9.07;96.43
9009;BME280;62813;51.424;6.762;2023-04-07T08:09:53;101318.84;;;9.05;96.51
9009;BME280;62813;51.424;6.762;2023-04-07T08:12:21;101322.31;;;9.05;96.64
9009;BME280;62813;51.424;6.762;2023-04-07T08:14:47;101319.75;;;9.05;96.63
9009;BME280;62813;51.424;6.762;2023-04-07T08:17:15;101327.63;;;8.99;96.46
9009;BME280;62813;51.424;6.762;2023-04-07T08:19:42;101325.06;;;8.97;96.16
9009;BME280;62813;51.424;6.762;2023-04-07T08:22:09;101330.16;;;9.02;96.38
9009;BME280;62813;51.424;6.762;2023-04-07T08:24:36;101331.91;;;9.02;96.33
9009;BME280;62813;51.424;6.762;2023-04-07T08:27:02;101331.91;;;9.00;96.58
9009;BME280;62813;51.424;6.762;2023-04-07T08:29:29;101337.06;;;9.02;96.34
9009;BME280;62813;51.424;6.762;2023-04-07T08:31:57;101347.50;;;8.99;96.40
9009;BME280;62813;51.424;6.762;2023-04-07T08:34:24;101347.69;;;8.91;96.76
9009;BME280;62813;51.424;6.762;2023-04-07T08:36:50;101345.34;;;8.80;97.33
9009;BME280;62813;51.424;6.762;2023-04-07T08:39:17;101348.81;;;8.81;97.55
9009;BME280;62813;51.424;6.762;2023-04-07T08:41:45;101350.34;;;8.88;97.40
9009;BME280;62813;51.424;6.762;2023-04-07T08:44:13;101364.91;;;8.92;97.01
9009;BME280;62813;51.424;6.762;2023-04-07T08:46:43;101360.53;;;8.95;96.94
9009;BME280;62813;51.424;6.762;2023-04-07T08:49:12;101363.13;;;8.95;96.27
9009;BME280;62813;51.424;6.762;2023-04-07T08:51:46;101357.84;;;8.99;96.27
9009;BME280;62813;51.424;6.762;2023-04-07T08:54:15;101364.63;;;9.04;96.59
9009;BME280;62813;51.424;6.762;2023-04-07T08:56:44;101362.97;;;9.02;96.64
9009;BME280;62813;51.424;6.762;2023-04-07T08:59:12;101367.41;;;8.96;96.65
9009;BME280;62813;51.424;6.762;2023-04-07T09:01:41;101367.22;;;9.04;96.86
9009;BME280;62813;51.424;6.762;2023-04-07T09:04:08;101372.44;;;9.03;96.58
9009;BME280;62813;51.424;6.762;2023-04-07T09:06:36;101375.06;;;9.00;96.93
9009;BME280;62813;51.424;6.762;2023-04-07T09:09:03;101373.38;;;8.99;96.74
9009;BME280;62813;51.424;6.762;2023-04-07T09:11:38;101371.53;;;9.05;97.42
9009;BME280;62813;51.424;6.762;2023-04-07T09:14:05;101379.00;;;9.17;97.77
9009;BME280;62813;51.424;6.762;2023-04-07T09:16:33;101372.81;;;9.23;97.11
9009;BME280;62813;51.424;6.762;2023-04-07T09:19:00;101382.09;;;9.32;96.94
9009;BME280;62813;51.424;6.762;2023-04-07T09:21:46;101386.56;;;9.25;95.81
9009;BME280;62813;51.424;6.762;2023-04-07T09:24:24;101381.34;;;9.27;95.67
9009;BME280;62813;51.424;6.762;2023-04-07T09:27:27;101390.16;;;9.19;94.62
9009;BME280;62813;51.424;6.762;2023-04-07T09:30:10;101382.63;;;9.10;95.18
9009;BME280;62813;51.424;6.762;2023-04-07T09:32:37;101388.50;;;9.17;95.87
9009;BME280;62813;51.424;6.762;2023-04-07T09:35:07;101393.59;;;9.20;95.21
9009;BME280;62813;51.424;6.762;2023-04-07T09:37:34;101386.56;;;9.25;94.27
9009;BME280;62813;51.424;6.762;2023-04-07T09:40:01;101393.44;;;9.26;93.57
9009;BME280;62813;51.424;6.762;2023-04-07T09:42:28;101387.63;;;9.18;93.96
9009;BME280;62813;51.424;6.762;2023-04-07T09:45:01;101384.19;;;9.17;94.35
9009;BME280;62813;51.424;6.762;2023-04-07T09:47:30;101388.63;;;9.12;94.19
9009;BME280;62813;51.424;6.762;2023-04-07T09:49:57;101386.81;;;9.16;94.22
9009;BME280;62813;51.424;6.762;2023-04-07T09:55:21;101386.72;;;9.19;94.79
9009;BME280;62813;51.424;6.762;2023-04-07T09:57:52;101396.75;;;9.33;94.05
9009;BME280;62813;51.424;6.762;2023-04-07T10:00:22;101392.44;;;9.32;93.60
9009;BME280;62813;51.424;6.762;2023-04-07T10:02:49;101388.88;;;9.36;93.26
9009;BME280;62813;51.424;6.762;2023-04-07T10:05:17;101392.16;;;9.42;93.34
9009;BME280;62813;51.424;6.762;2023-04-07T10:07:47;101392.06;;;9.47;92.91
9009;BME280;62813;51.424;6.762;2023-04-07T10:10:14;101392.09;;;9.45;93.08
9009;BME280;62813;51.424;6.762;2023-04-07T10:12:43;101392.78;;;9.52;93.35
9009;BME280;62813;51.424;6.762;2023-04-07T10:15:16;101387.63;;;9.50;92.32
9009;BME280;62813;51.424;6.762;2023-04-07T10:17:46;101399.78;;;9.48;91.93
9009;BME280;62813;51.424;6.762;2023-04-07T10:20:16;101400.81;;;9.41;91.96
9009;BME280;62813;51.424;6.762;2023-04-07T10:22:45;101403.41;;;9.41;91.79
9009;BME280;62813;51.424;6.762;2023-04-07T10:25:17;101407.69;;;9.44;92.06
9009;BME280;62813;51.424;6.762;2023-04-07T10:27:48;101408.44;;;9.47;91.57
9009;BME280;62813;51.424;6.762;2023-04-07T10:30:24;101413.63;;;9.47;91.66
9009;BME280;62813;51.424;6.762;2023-04-07T10:32:52;101406.59;;;9.53;91.23
9009;BME280;62813;51.424;6.762;2023-04-07T10:35:20;101416.91;;;9.54;90.84
9009;BME280;62813;51.424;6.762;2023-04-07T10:40:33;101413.22;;;9.63;90.66
9009;BME280;62813;51.424;6.762;2023-04-07T10:43:00;101422.78;;;9.61;89.16
9009;BME280;62813;51.424;6.762;2023-04-07T10:48:17;101421.81;;;9.65;89.63
9009;BME280;62813;51.424;6.762;2023-04-07T10:50:45;101425.13;;;9.70;89.81
9009;BME280;62813;51.424;6.762;2023-04-07T10:53:33;101422.53;;;9.70;89.95
9009;BME280;62813;51.424;6.762;2023-04-07T10:56:00;101431.00;;;9.76;89.31
9009;BME280;62813;51.424;6.762;2023-04-07T10:58:31;101429.09;;;9.83;89.57
9009;BME280;62813;51.424;6.762;2023-04-07T11:03:26;101434.22;;;9.86;89.72
9009;BME280;62813;51.424;6.762;2023-04-07T11:06:17;101433.31;;;9.87;88.55
9009;BME280;62813;51.424;6.762;2023-04-07T11:08:45;101432.28;;;9.93;88.03
9009;BME280;62813;51.424;6.762;2023-04-07T11:11:19;101428.25;;;10.14;88.35
9009;BME280;62813;51.424;6.762;2023-04-07T11:13:48;101426.09;;;10.28;89.11
9009;BME280;62813;51.424;6.762;2023-04-07T11:16:17;101424.78;;;10.44;89.78
9009;BME280;62813;51.424;6.762;2023-04-07T11:18:45;101430.41;;;10.58;86.38
9009;BME280;62813;51.424;6.762;2023-04-07T11:21:17;101430.38;;;10.60;85.51
9009;BME280;62813;51.424;6.762;2023-04-07T11:23:45;101434.34;;;10.72;86.88
9009;BME280;62813;51.424;6.762;2023-04-07T11:26:14;101428.75;;;10.84;86.90
9009;BME280;62813;51.424;6.762;2023-04-07T11:28:46;101434.16;;;10.78;85.85
9009;BME280;62813;51.424;6.762;2023-04-07T11:31:26;101433.00;;;10.58;86.40
9009;BME280;62813;51.424;6.762;2023-04-07T11:33:55;101433.09;;;10.55;86.81
9009;BME280;62813;51.424;6.762;2023-04-07T11:38:54;101434.88;;;10.53;86.93
9009;BME280;62813;51.424;6.762;2023-04-07T11:41:26;101434.88;;;10.53;87.01
9009;BME280;62813;51.424;6.762;2023-04-07T11:44:09;101438.28;;;10.55;87.24
9009;BME280;62813;51.424;6.762;2023-04-07T11:46:51;101444.09;;;10.64;86.41
9009;BME280;62813;51.424;6.762;2023-04-07T11:49:22;101445.63;;;10.71;86.01
9009;BME280;62813;51.424;6.762;2023-04-07T11:52:00;101454.06;;;10.77;86.29
9009;BME280;62813;51.424;6.762;2023-04-07T11:54:39;101454.72;;;10.84;86.15
9009;BME280;62813;51.424;6.762;2023-04-07T11:57:06;101454.28;;;10.71;84.91
9009;BME280;62813;51.424;6.762;2023-04-07T11:59:32;101454.41;;;10.37;85.90
9009;BME280;62813;51.424;6.762;2023-04-07T12:01:59;101456.28;;;10.32;85.52
9009;BME280;62813;51.424;6.762;2023-04-07T12:04:27;101464.75;;;10.39;85.76
9009;BME280;62813;51.424;6.762;2023-04-07T12:06:54;101462.47;;;10.26;85.12
9009;BME280;62813;51.424;6.762;2023-04-07T12:09:33;101470.31;;;10.25;86.21
9009;BME280;62813;51.424;6.762;2023-04-07T12:12:04;101473.81;;;10.24;85.83
9009;BME280;62813;51.424;6.762;2023-04-07T12:14:32;101482.22;;;10.32;86.10
9009;BME280;62813;51.424;6.762;2023-04-07T12:16:59;101477.19;;;10.26;86.52
9009;BME280;62813;51.424;6.762;2023-04-07T12:19:30;101477.25;;;10.24;86.59
9009;BME280;62813;51.424;6.762;2023-04-07T12:22:02;101484.94;;;10.27;87.07
9009;BME280;62813;51.424;6.762;2023-04-07T12:24:29;101484.19;;;10.24;87.78
9009;BME280;62813;51.424;6.762;2023-04-07T12:26:57;101476.31;;;10.27;87.76
9009;BME280;62813;51.424;6.762;2023-04-07T12:29:25;101491.91;;;10.25;88.02
9009;BME280;62813;51.424;6.762;2023-04-07T12:31:51;101492.03;;;10.22;88.53
9009;BME280;62813;51.424;6.762;2023-04-07T12:34:18;101494.63;;;10.22;88.54
9009;BME280;62813;51.424;6.762;2023-04-07T12:36:46;101487.69;;;10.21;88.94
9009;BME280;62813;51.424;6.762;2023-04-07T12:39:14;101492.09;;;10.19;89.38
9009;BME280;62813;51.424;6.762;2023-04-07T12:41:40;101498.06;;;10.23;89.01
9009;BME280;62813;51.424;6.762;2023-04-07T12:44:08;101496.38;;;10.20;90.05
9009;BME280;62813;51.424;6.762;2023-04-07T12:46:35;101498.91;;;10.23;89.36
9009;BME280;62813;51.424;6.762;2023-04-07T12:49:01;101503.31;;;10.20;89.96
9009;BME280;62813;51.424;6.762;2023-04-07T12:51:29;101501.72;;;10.16;89.78
9009;BME280;62813;51.424;6.762;2023-04-07T12:53:56;101500.09;;;10.12;90.02
9009;BME280;62813;51.424;6.762;2023-04-07T12:56:23;101506.97;;;10.13;90.37
9009;BME280;62813;51.424;6.762;2023-04-07T12:58:52;101505.09;;;10.18;90.44
9009;BME280;62813;51.424;6.762;2023-04-07T13:01:20;101504.84;;;10.27;89.87
9009;BME280;62813;51.424;6.762;2023-04-07T13:03:47;101508.28;;;10.29;90.35
9009;BME280;62813;51.424;6.762;2023-04-07T13:06:15;101501.13;;;10.37;89.93
9009;BME280;62813;51.424;6.762;2023-04-07T13:08:42;101509.59;;;10.42;90.07
9009;BME280;62813;51.424;6.762;2023-04-07T13:11:09;101505.06;;;10.50;90.39
9009;BME280;62813;51.424;6.762;2023-04-07T13:13:36;101503.44;;;10.46;90.53
9009;BME280;62813;51.424;6.762;2023-04-07T13:16:03;101502.28;;;10.56;90.36
9009;BME280;62813;51.424;6.762;2023-04-07T13:18:30;101499.50;;;10.64;89.96
9009;BME280;62813;51.424;6.762;2023-04-07T13:20:57;101501.00;;;10.71;88.89
9009;BME280;62813;51.424;6.762;2023-04-07T13:23:44;101503.78;;;10.64;89.31
9009;BME280;62813;51.424;6.762;2023-04-07T13:26:10;101505.88;;;10.52;89.32
9009;BME280;62813;51.424;6.762;2023-04-07T13:28:37;101509.09;;;10.60;89.05
9009;BME280;62813;51.424;6.762;2023-04-07T13:31:07;101513.88;;;10.45;89.12
9009;BME280;62813;51.424;6.762;2023-04-07T13:33:37;101504.41;;;10.42;89.54
9009;BME280;62813;51.424;6.762;2023-04-07T13:36:04;101514.09;;;10.37;89.94